createdAt,value
2023-03-29T00:04:16.053Z,42.55
2023-03-29T00:09:20.174Z,42.67
2023-03-29T00:14:23.504Z,42.52
2023-03-29T00:19:27.154Z,42.74
2023-03-29T00:24:30.984Z,42.81
2023-03-29T00:29:34.507Z,43.25
2023-03-29T00:34:37.921Z,43.47
2023-03-29T00:39:42.337Z,43.52
2023-03-29T00:45:04.173Z,43.70
2023-03-29T00:50:14.610Z,43.65
2023-03-29T00:55:23.062Z,43.57
2023-03-29T01:00:35.653Z,43.74
2023-03-29T01:05:43.335Z,43.80
2023-03-29T01:10:55.414Z,43.96
2023-03-29T01:16:00.229Z,43.96
2023-03-29T01:21:25.519Z,43.81
2023-03-29T01:26:35.114Z,43.87
2023-03-29T01:31:42.246Z,44.00
2023-03-29T01:37:02.396Z,44.18
2023-03-29T01:42:21.232Z,44.45
2023-03-29T01:47:32.729Z,44.61
2023-03-29T01:52:43.441Z,44.76
2023-03-29T01:57:49.014Z,45.11
2023-03-29T02:03:00.557Z,45.17
2023-03-29T02:08:06.208Z,45.30
2023-03-29T02:13:09.444Z,45.54
2023-03-29T02:18:16.726Z,45.51
2023-03-29T02:23:41.265Z,45.54
2023-03-29T02:28:44.836Z,45.64
2023-03-29T02:34:00.886Z,45.75
2023-03-29T02:39:06.129Z,46.11
2023-03-29T02:44:14.242Z,46.28
2023-03-29T02:49:18.287Z,46.58
2023-03-29T02:54:30.023Z,47.01
2023-03-29T02:59:34.825Z,47.31
2023-03-29T03:04:38.461Z,47.43
2023-03-29T03:09:42.084Z,47.68
2023-03-29T03:14:46.068Z,47.92
2023-03-29T03:19:49.774Z,48.02
2023-03-29T03:24:53.852Z,48.37
2023-03-29T03:29:58.321Z,48.43
2023-03-29T03:35:22.936Z,48.85
2023-03-29T03:40:27.865Z,48.97
2023-03-29T03:45:31.868Z,48.95
2023-03-29T03:50:59.305Z,48.98
2023-03-29T03:56:09.287Z,49.16
2023-03-29T04:01:24.776Z,49.20
2023-03-29T04:06:35.437Z,49.67
2023-03-29T04:12:02.051Z,50.32
2023-03-29T04:17:06.220Z,49.42
2023-03-29T04:22:25.965Z,49.44
2023-03-29T04:27:30.154Z,49.65
2023-03-29T04:32:34.395Z,49.60
2023-03-29T04:37:42.489Z,49.73
2023-03-29T04:42:47.593Z,49.60
2023-03-29T04:47:51.123Z,49.64
2023-03-29T04:52:55.869Z,50.49
2023-03-29T05:04:59.544Z,49.90
2023-03-29T05:10:04.730Z,49.82
2023-03-29T05:15:09.774Z,50.13
2023-03-29T05:20:14.017Z,50.29
2023-03-29T05:25:19.794Z,50.34
2023-03-29T05:30:23.866Z,50.53
2023-03-29T05:35:36.141Z,50.89
2023-03-29T05:48:27.418Z,50.86
2023-03-29T05:53:41.447Z,50.90
2023-03-29T06:04:15.768Z,50.80
2023-03-29T06:09:41.508Z,50.75
2023-03-29T06:20:15.917Z,50.21
2023-03-29T06:25:46.843Z,50.17
2023-03-29T06:30:56.790Z,49.27
2023-03-29T06:36:03.850Z,48.35
2023-03-29T06:46:47.610Z,47.15
2023-03-29T06:51:51.481Z,46.74
2023-03-29T06:56:55.240Z,46.53
2023-03-29T07:01:59.843Z,46.79
2023-03-29T07:07:27.595Z,46.37
2023-03-29T07:12:43.533Z,46.16
2023-03-29T07:17:51.517Z,45.78
2023-03-29T07:22:57.515Z,44.86
2023-03-29T07:28:16.572Z,44.61
2023-03-29T07:50:16.357Z,42.67
2023-03-29T07:57:04.297Z,41.19
2023-03-29T08:03:19.582Z,40.64
2023-03-29T08:53:41.601Z,35.73
2023-03-29T08:58:59.835Z,36.09
2023-03-29T09:43:36.637Z,33.01
2023-03-29T09:49:16.076Z,33.52
2023-03-29T09:55:23.876Z,34.10
2023-03-29T10:01:09.904Z,33.61
2023-03-29T10:06:58.244Z,32.95
2023-03-29T10:31:14.539Z,31.81
2023-03-29T10:42:58.726Z,31.62
2023-03-29T10:48:30.829Z,30.67
2023-03-29T10:54:09.110Z,29.80
2023-03-29T11:00:10.542Z,29.95
2023-03-29T11:05:34.870Z,29.72
2023-03-29T11:11:11.714Z,29.71
2023-03-29T11:22:56.271Z,28.95
2023-03-29T11:29:35.245Z,28.78
2023-03-29T11:35:45.002Z,27.77
2023-03-29T11:47:11.012Z,26.89
2023-03-29T11:52:22.756Z,26.35
2023-03-29T11:57:31.158Z,27.48
2023-03-29T12:02:48.022Z,27.29
2023-03-29T12:08:06.663Z,26.96
2023-03-29T12:13:21.172Z,26.12
2023-03-29T12:18:41.319Z,25.11
2023-03-29T12:23:46.050Z,25.46
2023-03-29T12:29:21.651Z,24.59
2023-03-29T12:34:40.814Z,24.35
2023-03-29T12:42:54.494Z,24.31
2023-03-29T12:48:22.952Z,24.07
2023-03-29T12:53:45.841Z,23.21
2023-03-29T12:59:11.178Z,23.78
2023-03-29T14:05:38.860Z,24.61
2023-03-29T14:10:44.983Z,23.77
2023-03-29T14:15:54.423Z,24.71
2023-03-29T14:21:01.283Z,25.43
2023-03-29T14:26:14.482Z,24.76
2023-03-29T14:31:38.886Z,25.08
2023-03-29T14:36:46.196Z,25.58
2023-03-29T14:41:52.244Z,24.16
2023-03-29T14:46:56.616Z,24.36
2023-03-29T14:52:00.670Z,24.96
2023-03-29T14:57:08.435Z,25.49
2023-03-29T15:02:32.494Z,25.77
2023-03-29T15:07:40.163Z,26.31
2023-03-29T15:12:44.003Z,26.74
2023-03-29T15:17:52.282Z,26.98
2023-03-29T15:23:04.685Z,27.61
2023-03-29T15:28:27.211Z,28.08
2023-03-29T15:33:36.807Z,28.55
2023-03-29T15:38:45.151Z,28.66
2023-03-29T15:43:48.937Z,28.95
2023-03-29T15:48:52.652Z,29.07
2023-03-29T15:53:56.431Z,29.50
2023-03-29T15:59:02.020Z,29.53
2023-03-29T16:04:06.993Z,29.52
2023-03-29T16:09:12.213Z,29.43
2023-03-29T16:14:23.159Z,29.43
2023-03-29T16:19:28.532Z,29.62
2023-03-29T16:24:33.336Z,29.70
2023-03-29T16:29:36.894Z,29.81
2023-03-29T16:34:41.588Z,29.96
2023-03-29T16:39:46.563Z,29.83
2023-03-29T16:44:49.976Z,30.12
2023-03-29T16:49:53.685Z,30.12
2023-03-29T16:54:57.032Z,30.31
2023-03-29T17:00:00.470Z,30.37
2023-03-29T17:05:04.573Z,30.41
2023-03-29T17:10:09.483Z,30.73
2023-03-29T17:15:12.895Z,30.92
2023-03-29T17:20:17.399Z,31.08
2023-03-29T17:25:23.899Z,31.24
2023-03-29T17:30:27.931Z,31.36
2023-03-29T17:35:31.728Z,31.75
2023-03-29T17:40:38.370Z,31.97
2023-03-29T17:45:41.693Z,32.68
2023-03-29T17:50:45.161Z,32.16
2023-03-29T17:55:48.757Z,32.50
2023-03-29T18:00:52.126Z,33.64
2023-03-29T18:05:56.772Z,34.46
2023-03-29T18:11:14.164Z,34.36
2023-03-29T18:16:17.972Z,34.56
2023-03-29T18:21:22.277Z,34.24
2023-03-29T18:26:26.023Z,34.11
2023-03-29T18:31:29.471Z,34.38
2023-03-29T18:36:32.871Z,34.65
2023-03-29T18:41:37.521Z,35.15
2023-03-29T18:46:41.203Z,35.61
2023-03-29T18:51:46.453Z,35.74
2023-03-29T18:56:49.950Z,35.91
2023-03-29T19:01:53.621Z,36.94
2023-03-29T19:06:56.899Z,37.20
2023-03-29T19:12:00.502Z,37.25
2023-03-29T19:17:03.992Z,37.64
2023-03-29T19:22:07.721Z,38.25
2023-03-29T19:27:12.593Z,38.91
2023-03-29T19:32:16.388Z,38.74
2023-03-29T19:37:20.413Z,38.89
2023-03-29T19:42:24.176Z,39.07
2023-03-29T19:47:28.442Z,39.39
2023-03-29T19:52:32.010Z,39.69
2023-03-29T19:57:35.425Z,40.26
2023-03-29T20:02:39.168Z,40.51
2023-03-29T20:07:43.057Z,40.52
2023-03-29T20:12:48.074Z,41.21
2023-03-29T20:17:54.492Z,41.10
2023-03-29T20:29:24.321Z,41.41
2023-03-29T20:34:28.054Z,41.26
2023-03-29T20:39:31.661Z,41.05
2023-03-29T20:44:35.471Z,41.37
2023-03-29T20:49:38.835Z,42.73
2023-03-29T20:54:44.354Z,43.02
2023-03-29T20:59:49.425Z,42.23
2023-03-29T21:04:54.075Z,42.08
2023-03-29T21:09:57.485Z,42.13
2023-03-29T21:15:02.744Z,42.08
2023-03-29T21:20:13.125Z,42.22
2023-03-29T21:25:16.869Z,42.30
2023-03-29T21:30:20.261Z,42.29
2023-03-29T21:35:24.255Z,42.45
2023-03-29T21:40:27.743Z,42.43
2023-03-29T21:45:31.215Z,42.42
2023-03-29T21:50:34.792Z,43.11
2023-03-29T21:55:38.360Z,43.70
2023-03-29T22:00:41.806Z,43.60
2023-03-29T22:05:56.621Z,44.52
2023-03-29T22:11:08.260Z,44.75
2023-03-29T22:16:18.819Z,45.05
2023-03-29T22:21:25.399Z,45.95
2023-03-29T22:26:31.069Z,47.24
2023-03-29T22:31:34.317Z,48.10
2023-03-29T22:36:37.604Z,48.74
2023-03-29T22:41:42.040Z,49.63
2023-03-29T22:46:45.769Z,50.40
2023-03-29T22:51:49.298Z,50.66
2023-03-29T22:57:01.128Z,50.97
2023-03-29T23:02:07.868Z,51.03
2023-03-29T23:07:13.462Z,51.58
2023-03-29T23:12:17.316Z,52.12
2023-03-29T23:17:21.014Z,52.03
2023-03-29T23:22:24.672Z,52.17
2023-03-29T23:27:28.567Z,52.53
2023-03-29T23:32:31.989Z,52.88
2023-03-29T23:37:35.638Z,53.31
2023-03-29T23:42:40.938Z,53.43
2023-03-29T23:47:45.762Z,53.38
2023-03-29T23:52:49.701Z,53.43
2023-03-29T23:57:53.045Z,53.56
